Latest Weather Observations for Moree

IDN60801

Issued at 1:02 pm EDT Saturday 25 February 2017 (issued every 30 minutes, with the page automatically refreshed every 10 minutes)

About weather observations | Map of weather stations | Latest weather observations for NSW | Other Formats
Station Details ID: 053115 Name: MOREE AERO Lat: -29.49 Lon: 149.85 Height: 213.0 m
Data from the previous 72 hours. | See also: Recent months at Moree
Date/Time
EDT
Temp
°C
App
Temp
°C
Dew
Point
°C
Rel
Hum
%
Delta-T
°C
Wind Press
QNH
hPa
Press
MSL
hPa
Rain since
9am
mm
Dir  Spd
km/h
Gust
km/h
Spd
kts
Gust
kts
25/12:30pm 31.9 29.3 13.2 32 11.3 NNE 19 35 10 19 1015.8 1014.6 0.0
25/12:00pm 29.4 26.7 13.6 38 9.5 NNE 20 30 11 16 1016.3 1015.1 0.0
25/11:30am 29.1 26.2 14.1 40 9.1 NNE 22 32 12 17 1016.8 1015.5 0.0
25/11:00am 29.1 26.0 14.5 41 8.9 NNE 24 32 13 17 1017.3 1016.0 0.0
25/10:30am 27.7 24.7 14.7 45 7.9 NNE 24 33 13 18 1017.5 1016.2 0.0
25/10:00am 27.2 23.1 14.9 47 7.5 NNE 30 41 16 22 1017.6 1016.3 0.0
25/09:30am 26.1 22.1 15.2 51 6.6 NNE 30 37 16 20 1017.7 1016.4 0.0
25/09:00am 25.0 20.9 14.8 53 6.1 NNE 30 35 16 19 1017.6 1016.3 0.0
25/08:30am 24.4 19.9 14.8 55 5.8 NE 32 41 17 22 1017.3 1016.0 0.0
25/08:00am 23.9 19.7 14.6 56 5.6 NE 30 39 16 21 1017.1 1015.8 0.0
25/07:30am 23.4 20.7 13.6 54 5.8 NE 20 28 11 15 1016.7 1015.4 0.0
25/07:00am 23.4 20.6 13.3 53 5.9 NE 20 26 11 14 1016.2 1015.0 0.0
25/06:30am 23.7 21.4 13.0 51 6.2 NE 17 26 9 14 1015.7 1014.5 0.0
25/06:00am 24.1 21.6 12.4 48 6.8 NE 17 19 9 10 1015.3 1014.0 0.0
25/05:30am 24.6 22.2 12.5 46 7.0 NE 17 22 9 12 1014.8 1013.5 0.0
25/05:00am 25.0 22.0 12.6 46 7.2 NE 20 26 11 14 1014.6 1013.3 0.0
25/04:30am 25.7 22.3 12.5 44 7.7 NE 22 28 12 15 1014.2 1012.9 0.0
25/04:00am 26.4 23.0 12.5 42 8.1 NE 22 28 12 15 1014.0 1012.7 0.0
25/03:30am 25.8 23.6 13.3 46 7.4 NE 17 20 9 11 1014.2 1012.9 0.0
25/03:00am 26.5 22.6 13.3 44 7.8 NNE 26 35 14 19 1013.7 1012.4 0.0
25/02:30am 26.1 23.4 14.6 49 6.9 NE 22 30 12 16 1014.0 1012.7 0.0
25/02:00am 26.5 25.4 14.3 47 7.3 NNE 13 15 7 8 1014.6 1013.3 0.0
25/01:30am 26.8 24.3 14.2 46 7.6 NE 20 28 11 15 1014.8 1013.5 0.0
25/01:00am 27.3 23.6 14.0 44 8.0 ENE 26 39 14 21 1015.0 1013.7 0.0
25/12:30am 28.0 23.5 13.9 42 8.5 ENE 30 41 16 22 1015.0 1013.7 0.0
25/12:00am 28.0 24.5 13.5 41 8.7 ENE 24 33 13 18 1014.9 1013.6 0.0
 
Date/Time
EDT
Temp
°C
App
Temp
°C
Dew
Point
°C
Rel
Hum
%
Delta-T
°C
Wind Press
QNH
hPa
Press
MSL
hPa
Rain since
9am
mm
Dir  Spd
km/h
Gust
km/h
Spd
kts
Gust
kts
24/11:30pm 29.0 22.7 11.1 33 10.3 E 35 48 19 26 1015.1 1013.8 0.0
24/11:02pm 30.0 23.8 10.0 29 11.4 ESE 33 52 18 28 1015.1 1013.8 0.0
24/11:00pm 29.9 23.7 9.9 29 11.4 ESE 33 44 18 24 1015.0 1013.7 0.0
24/10:40pm 30.5 24.0 10.5 29 11.5 SE 35 46 19 25 1014.9 1013.6 0.0
24/10:30pm 31.5 27.2 10.8 28 12.0 SE 24 33 13 18 1014.8 1013.5 0.0
24/10:00pm 31.9 29.3 9.4 25 12.8 S 13 20 7 11 1014.7 1013.4 0.0
24/09:30pm 30.8 30.4 9.6 27 12.1 S 2 7 1 4 1014.2 1012.9 0.0
24/09:00pm 32.0 30.7 10.1 26 12.6 W 7 9 4 5 1014.0 1012.7 0.0
24/08:30pm 32.3 30.8 10.4 26 12.7 NW 9 11 5 6 1013.9 1012.6 0.0
24/08:00pm 33.5 31.5 10.2 24 13.5 NW 11 11 6 6 1013.6 1012.3 0.0
24/07:30pm 34.9 32.7 9.3 21 14.8 WNW 11 17 6 9 1013.4 1012.1 0.0
24/07:00pm 36.1 34.0 9.6 20 15.4 WNW 11 13 6 7 1013.4 1012.1 0.0
24/06:30pm 36.2 34.1 9.7 20 15.5 W 11 15 6 8 1013.4 1012.1 0.0
24/06:00pm 37.2 35.5 9.7 19 16.1 SSW 9 13 5 7 1013.4 1012.1 0.0
24/05:30pm 36.8 35.0 9.4 19 16.0 SE 9 17 5 9 1013.6 1012.3 0.0
24/05:00pm 36.4 34.3 9.8 20 15.6 W 11 17 6 9 1013.8 1012.5 0.0
24/04:30pm 37.2 36.1 10.5 20 15.8 SE 7 15 4 8 1014.1 1012.8 0.0
24/04:00pm 36.5 33.9 10.6 21 15.3 S 15 26 8 14 1014.4 1013.1 0.0
24/03:30pm 35.3 33.2 11.0 23 14.4 NNW 13 26 7 14 1014.9 1013.6 0.0
24/03:00pm 35.0 33.0 10.1 22 14.5 S 11 17 6 9 1015.4 1014.1 0.0
24/02:30pm 34.8 32.7 11.2 24 14.0 WSW 13 20 7 11 1015.8 1014.6 0.0
24/02:00pm 34.4 33.3 12.1 26 13.4 E 9 15 5 8 1016.5 1015.3 0.0
24/01:30pm 33.1 31.7 12.1 27 12.5 SSW 11 19 6 10 1017.2 1015.9 0.0
24/01:00pm 31.9 31.0 12.7 31 11.5 WNW 9 26 5 14 1017.9 1016.6 0.0
24/12:30pm 31.1 29.9 12.9 32 10.9 NNE 11 19 6 10 1018.5 1017.2 0.0
24/12:00pm 30.4 29.1 13.7 36 10.1 NW 13 24 7 13 1018.9 1017.6 0.0
24/11:30am 29.9 28.5 14.4 38 9.5 N 15 22 8 12 1019.3 1018.0 0.0
24/11:00am 28.5 26.8 14.7 43 8.4 N 17 26 9 14 1019.7 1018.5 0.0
24/10:30am 27.7 25.4 14.7 45 7.9 N 20 28 11 15 1019.9 1018.7 0.0
24/10:00am 26.4 24.0 15.4 50 6.7 NNE 22 30 12 16 1019.9 1018.7 0.0
24/09:30am 26.4 23.9 16.1 53 6.4 NNE 24 32 13 17 1019.7 1018.5 0.0
24/09:00am 24.7 21.8 16.2 59 5.2 NNE 26 33 14 18 1019.5 1018.2 0.0
24/08:30am 23.7 21.7 15.5 60 5.0 NNE 20 28 11 15 1019.2 1017.9 0.0
24/08:00am 22.5 20.8 14.6 61 4.7 NE 17 24 9 13 1019.1 1017.8 0.0
24/07:30am 21.7 20.1 13.9 61 4.6 NE 15 17 8 9 1018.9 1017.6 0.0
24/07:00am 21.5 19.8 13.7 61 4.5 NE 15 17 8 9 1018.5 1017.2 0.0
24/06:30am 21.9 20.2 13.5 59 4.9 NE 15 17 8 9 1018.1 1016.8 0.0
24/06:00am 21.8 19.8 12.6 56 5.3 NE 15 19 8 10 1017.7 1016.4 0.0
24/05:30am 21.9 19.8 12.5 55 5.4 NE 15 17 8 9 1017.5 1016.2 0.0
24/05:00am 22.3 20.2 12.3 53 5.7 NE 15 17 8 9 1017.3 1016.0 0.0
24/04:30am 22.7 21.0 12.3 52 6.0 NE 13 15 7 8 1017.0 1015.7 0.0
24/04:00am 23.0 21.6 12.3 51 6.1 ENE 11 13 6 7 1017.0 1015.7 0.0
24/03:30am 23.6 21.5 12.3 49 6.5 NE 15 17 8 9 1016.9 1015.6 0.0
24/03:00am 23.8 21.5 11.8 47 6.8 NE 15 19 8 10 1017.0 1015.7 0.0
24/02:30am 24.9 22.4 12.2 45 7.3 NE 17 20 9 11 1017.1 1015.8 0.0
24/02:00am 25.2 23.0 12.1 44 7.6 NE 15 19 8 10 1017.3 1016.0 0.0
24/01:30am 26.0 23.6 12.5 43 7.9 NE 17 19 9 10 1017.5 1016.2 0.0
24/01:00am 26.9 23.8 12.2 40 8.6 NNE 20 28 11 15 1017.5 1016.2 0.0
24/12:30am 26.6 24.6 11.5 39 8.7 NE 13 19 7 10 1017.3 1016.0 0.0
24/12:00am 26.0 23.6 10.2 37 8.9 E 13 19 7 10 1017.1 1015.8 0.0
 
Date/Time
EDT
Temp
°C
App
Temp
°C
Dew
Point
°C
Rel
Hum
%
Delta-T
°C
Wind Press
QNH
hPa
Press
MSL
hPa
Rain since
9am
mm
Dir  Spd
km/h
Gust
km/h
Spd
kts
Gust
kts
23/11:30pm 26.0 25.6 11.0 39 8.5 WNW 4 6 2 3 1016.7 1015.4 0.0
23/11:00pm 27.0 25.5 10.7 36 9.3 WNW 9 11 5 6 1016.8 1015.5 0.0
23/10:30pm 27.5 25.5 10.2 34 9.8 WNW 11 11 6 6 1016.8 1015.5 0.0
23/10:00pm 28.7 26.4 10.4 32 10.4 WNW 13 15 7 8 1016.9 1015.6 0.0
23/09:30pm 28.8 27.3 10.5 32 10.5 WNW 9 11 5 6 1016.8 1015.5 0.0
23/09:00pm 29.7 27.6 9.8 29 11.3 W 11 13 6 7 1016.7 1015.4 0.0
23/08:30pm 30.3 28.2 9.8 28 11.7 WNW 11 13 6 7 1016.5 1015.3 0.0
23/08:00pm 32.0 29.4 9.5 25 12.8 WSW 13 15 7 8 1016.2 1015.0 0.0
23/07:30pm 33.9 31.3 9.2 22 14.2 SSW 13 19 7 10 1015.9 1014.7 0.0
23/07:00pm 34.9 32.5 10.0 22 14.5 SW 13 17 7 9 1015.7 1014.5 0.0
23/06:30pm 35.1 33.1 10.2 22 14.6 SW 11 20 6 11 1015.6 1014.4 0.0
23/06:00pm 35.0 32.2 10.1 22 14.5 S 15 26 8 14 1015.5 1014.2 0.0
23/05:30pm 35.5 33.0 9.8 21 15.0 SSE 13 20 7 11 1015.6 1014.4 0.0
23/05:00pm 35.4 32.5 11.1 23 14.4 SW 17 24 9 13 1015.8 1014.6 0.0
23/04:30pm 34.2 32.0 10.7 24 13.8 SE 13 20 7 11 1016.0 1014.8 0.0
23/04:00pm 34.4 32.1 10.3 23 14.1 ESE 13 22 7 12 1016.4 1015.2 0.0
23/03:30pm 34.0 31.9 11.2 25 13.5 SE 13 24 7 13 1016.8 1015.5 0.0
23/03:00pm 33.7 32.1 11.5 26 13.2 SSE 11 19 6 10 1017.2 1015.9 0.0
23/02:30pm 32.9 30.7 10.9 26 12.9 S 13 20 7 11 1017.6 1016.3 0.0
23/02:00pm 33.0 31.2 12.1 28 12.5 SSE 13 22 7 12 1017.9 1016.6 0.0
23/01:30pm 31.9 31.0 12.7 31 11.5 SE 9 15 5 8 1018.5 1017.2 0.0
23/01:00pm 30.6 28.9 12.5 33 10.8 NNE 13 17 7 9 1018.9 1017.6 0.0
23/12:30pm 30.0 28.8 12.9 35 10.2 NNW 11 22 6 12 1019.3 1018.0 0.0
23/12:00pm 29.3 28.2 13.1 37 9.7 NNW 11 20 6 11 1019.8 1018.6 0.0
23/11:30am 28.3 26.8 13.0 39 9.1 NNE 13 22 7 12 1020.3 1019.1 0.0
23/11:00am 27.9 26.1 13.4 40 8.6 N 15 22 8 12 1020.5 1019.3 0.0
23/10:30am 27.0 25.1 14.1 45 7.8 NNE 17 30 9 16 1020.6 1019.4 0.0
23/10:00am 25.2 22.9 14.0 49 6.7 NNE 19 28 10 15 1020.6 1019.4 0.0
23/09:30am 24.3 21.0 14.1 53 6.1 NNE 24 30 13 16 1020.7 1019.5 0.0
23/09:00am 23.6 20.4 14.3 56 5.5 NNE 24 30 13 16 1020.5 1019.3 0.0
23/08:30am 22.4 20.0 14.5 61 4.7 NE 20 28 11 15 1020.3 1019.1 0.0
23/08:00am 21.3 19.2 14.7 66 3.9 NE 19 24 10 13 1020.1 1018.9 0.0
23/07:30am 20.2 18.3 14.3 69 3.5 NE 17 20 9 11 1019.8 1018.6 0.0
23/07:00am 19.9 18.1 14.5 71 3.2 NE 17 22 9 12 1019.6 1018.3 0.0
23/06:30am 19.9 18.1 14.5 71 3.2 NE 17 22 9 12 1019.3 1018.0 0.0
23/06:00am 20.0 18.2 14.4 70 3.3 NE 17 20 9 11 1019.0 1017.7 0.0
23/05:30am 20.3 18.9 14.4 69 3.5 NE 15 19 8 10 1018.7 1017.4 0.0
23/05:00am 20.9 19.4 14.3 66 3.9 NE 15 17 8 9 1018.6 1017.3 0.0
23/04:30am 21.4 19.7 14.6 65 4.0 NE 17 19 9 10 1018.5 1017.2 0.0
23/04:00am 21.6 19.8 14.5 64 4.2 NE 17 19 9 10 1018.4 1017.1 0.0
23/03:30am 22.2 20.8 14.6 62 4.5 NE 15 19 8 10 1018.4 1017.1 0.0
23/03:00am 22.5 20.7 14.4 60 4.8 NE 17 19 9 10 1018.3 1017.0 0.0
23/02:30am 23.1 20.8 14.1 57 5.3 NE 19 26 10 14 1018.4 1017.1 0.0
23/02:00am 23.9 21.4 14.0 54 5.9 ENE 20 28 11 15 1018.4 1017.1 0.0
23/01:30am 24.5 20.4 13.7 51 6.4 ENE 28 33 15 18 1018.3 1017.0 0.0
23/01:00am 24.8 20.6 13.4 49 6.7 ENE 28 35 15 19 1018.3 1017.0 0.0
23/12:30am 25.3 21.7 13.2 47 7.1 ENE 24 32 13 17 1018.5 1017.2 0.0
23/12:00am 26.0 21.9 12.8 44 7.7 NE 26 33 14 18 1018.3 1017.0 0.0
 
Date/Time
EDT
Temp
°C
App
Temp
°C
Dew
Point
°C
Rel
Hum
%
Delta-T
°C
Wind Press
QNH
hPa
Press
MSL
hPa
Rain since
9am
mm
Dir  Spd
km/h
Gust
km/h
Spd
kts
Gust
kts
22/11:30pm 26.6 23.8 13.3 43 7.9 NE 20 26 11 14 1018.1 1016.8 0.0
22/11:00pm 26.7 24.5 13.4 43 7.9 NE 17 19 9 10 1017.7 1016.4 0.0
22/10:30pm 27.6 25.0 13.2 41 8.6 NE 19 24 10 13 1017.4 1016.1 0.0
22/10:00pm 28.5 24.7 12.4 37 9.5 NE 24 37 13 20 1017.2 1015.9 0.0
22/09:54pm 28.8 26.3 12.2 35 9.8 NE 17 37 9 20 1017.1 1015.8 0.0
22/09:30pm 28.2 26.6 11.7 36 9.6 NNE 11 13 6 7 1016.7 1015.4 0.0
22/09:00pm 28.4 27.3 11.9 36 9.6 NNE 9 11 5 6 1016.2 1015.0 0.0
22/08:30pm 28.9 28.2 11.5 34 10.1 NNE 6 7 3 4 1015.8 1014.6 0.0
22/08:00pm 30.5 29.5 11.0 30 11.3 NE 7 9 4 5 1015.6 1014.4 0.0
22/07:30pm 31.8 30.0 11.0 28 12.2 NE 11 13 6 7 1015.3 1014.0 0.0
22/07:00pm 32.6 30.7 10.6 26 12.8 ENE 11 15 6 8 1015.0 1013.7 0.0
22/06:30pm 33.0 30.3 10.4 25 13.2 NE 15 19 8 10 1014.9 1013.6 0.0
22/06:00pm 33.6 32.0 10.2 24 13.6 ESE 9 15 5 8 1015.0 1013.7 0.0
22/05:30pm 33.5 30.9 9.5 23 13.8 NE 13 20 7 11 1014.9 1013.6 0.0
22/05:00pm 32.8 30.8 10.2 25 13.1 NE 11 19 6 10 1015.2 1013.9 0.0
22/04:30pm 33.7 31.2 10.9 25 13.4 NE 15 26 8 14 1015.3 1014.0 0.0
22/04:00pm 32.2 29.6 10.8 27 12.5 ENE 15 22 8 12 1015.7 1014.5 0.0
22/03:30pm 32.2 29.6 11.9 29 12.0 NE 17 32 9 17 1016.1 1014.9 0.0
22/03:00pm 32.8 29.8 11.9 28 12.4 N 19 28 10 15 1016.5 1015.3 0.0
22/02:30pm 32.6 30.6 12.8 30 11.9 NE 15 22 8 12 1017.1 1015.8 0.0
22/02:00pm 31.8 29.2 12.1 30 11.7 NNE 17 32 9 17 1017.6 1016.3 0.0
22/01:30pm 31.4 28.6 12.7 32 11.2 ENE 19 32 10 17 1018.0 1016.7 0.0

Other Formats:

Comma delimited format used in spreadsheet applications
http://www.bom.gov.au/fwo/IDN60801/IDN60801.95527.axf

JavaScript Object Notation format (JSON) in row-major order
http://www.bom.gov.au/fwo/IDN60801/IDN60801.95527.json